createdAt,value
2024-01-16T00:13:45.797Z,61.55
2024-01-16T02:02:12.693Z,80.75
2024-01-16T02:03:48.548Z,81.16
2024-01-16T02:05:21.277Z,80.79
2024-01-16T02:06:53.577Z,80.95
2024-01-16T02:08:26.050Z,81.05
2024-01-16T03:35:07.952Z,86.86
2024-01-16T03:36:40.266Z,86.89
2024-01-16T03:38:12.486Z,86.90
2024-01-16T03:39:46.467Z,87.06
2024-01-16T03:41:18.722Z,86.88
2024-01-16T03:42:50.862Z,86.82
2024-01-16T03:44:23.130Z,86.60
2024-01-16T07:50:07.638Z,54.69
2024-01-16T07:51:41.122Z,54.62
2024-01-16T07:53:13.763Z,54.42
2024-01-16T07:54:46.109Z,54.46
2024-01-16T13:36:39.824Z,52.27
2024-01-16T13:38:15.171Z,52.64
2024-01-16T13:39:47.937Z,53.24
2024-01-16T13:41:20.217Z,52.89
2024-01-16T13:42:53.153Z,52.38
2024-01-16T13:44:25.877Z,52.65
2024-01-16T18:02:43.552Z,77.35
2024-01-16T18:04:15.897Z,77.61
2024-01-16T18:05:50.658Z,78.05
2024-01-16T18:07:22.842Z,78.23
2024-01-16T18:08:55.310Z,78.13
2024-01-16T18:10:28.279Z,78.18
2024-01-16T18:12:00.851Z,78.57
2024-01-16T18:13:33.581Z,78.63
2024-01-16T18:15:13.264Z,78.59
2024-01-16T18:16:45.618Z,78.50
2024-01-16T18:18:18.952Z,78.53
2024-01-16T18:19:53.417Z,78.45
2024-01-16T18:21:25.788Z,78.54
2024-01-16T18:22:58.039Z,78.53
2024-01-16T18:24:30.713Z,78.68
2024-01-16T18:26:03.021Z,79.12
2024-01-16T18:27:35.463Z,79.32
2024-01-16T18:29:08.218Z,79.34
2024-01-16T18:30:40.808Z,79.50
2024-01-16T18:32:13.923Z,79.39
2024-01-16T18:33:46.475Z,79.26
2024-01-16T18:35:20.215Z,79.35
2024-01-16T18:36:55.195Z,79.31
2024-01-16T18:38:29.476Z,79.19
2024-01-16T18:40:02.048Z,78.91
2024-01-16T18:41:36.029Z,79.06
2024-01-16T18:43:09.384Z,79.35
2024-01-16T18:44:41.677Z,79.53
2024-01-16T18:46:16.096Z,79.87
2024-01-16T18:47:49.870Z,79.93
2024-01-16T18:49:22.557Z,79.77
2024-01-16T18:50:56.168Z,80.03
2024-01-16T18:52:28.620Z,80.26
2024-01-16T18:54:00.850Z,79.93
2024-01-16T18:55:33.158Z,79.74
2024-01-16T18:57:05.535Z,79.49
2024-01-16T18:58:38.267Z,79.60
2024-01-16T19:00:15.366Z,79.44
2024-01-16T19:01:47.889Z,79.46
2024-01-16T19:03:20.648Z,79.58
2024-01-16T19:04:53.249Z,80.03
2024-01-16T19:06:25.636Z,80.29
2024-01-16T19:07:58.108Z,80.36
2024-01-16T19:09:38.362Z,80.28
2024-01-16T19:11:10.940Z,80.40
2024-01-16T19:12:44.342Z,80.26
2024-01-16T19:14:18.483Z,80.29
2024-01-16T19:15:52.033Z,80.27
2024-01-16T19:17:24.355Z,80.24
2024-01-16T19:18:56.730Z,80.18
2024-01-16T19:20:29.805Z,80.31
2024-01-16T19:22:02.227Z,80.29
2024-01-16T19:23:36.148Z,80.47
2024-01-16T19:25:12.858Z,80.70
2024-01-16T19:26:45.563Z,80.78
2024-01-16T19:28:17.989Z,80.91
2024-01-16T19:29:50.354Z,80.85
2024-01-16T19:31:22.813Z,80.66
2024-01-16T19:32:55.703Z,80.66
2024-01-16T19:34:28.302Z,80.70
2024-01-16T19:36:03.007Z,80.67
2024-01-16T19:37:36.044Z,80.64
2024-01-16T19:39:16.186Z,80.81
2024-01-16T19:40:48.572Z,80.77
2024-01-16T19:42:20.872Z,80.79
2024-01-16T19:43:53.065Z,81.06
2024-01-16T19:45:25.749Z,81.32
2024-01-16T19:46:58.282Z,81.23
2024-01-16T19:48:30.999Z,81.29
2024-01-16T19:50:06.935Z,81.25
2024-01-16T19:51:42.167Z,81.08
2024-01-16T19:53:15.818Z,80.98
2024-01-16T19:54:48.100Z,80.80
2024-01-16T19:56:20.381Z,80.86
2024-01-16T19:57:54.579Z,80.71
2024-01-16T19:59:27.020Z,80.74
2024-01-16T20:00:59.444Z,80.26
2024-01-16T20:02:31.817Z,80.30
2024-01-16T20:04:04.324Z,80.60
2024-01-16T20:05:43.686Z,81.03
2024-01-16T20:07:16.274Z,81.25
2024-01-16T20:08:53.160Z,81.38
2024-01-16T20:10:25.527Z,81.70
2024-01-16T20:12:01.698Z,82.03
2024-01-16T20:13:33.982Z,82.27
2024-01-16T20:15:06.996Z,82.18
2024-01-16T20:16:40.369Z,82.50
2024-01-16T20:18:13.539Z,82.23
2024-01-16T20:19:45.848Z,82.18
2024-01-16T20:21:18.213Z,81.82
2024-01-16T20:41:04.974Z,82.23
2024-01-16T20:42:38.514Z,81.99
2024-01-16T20:44:11.287Z,81.89
2024-01-16T20:45:43.488Z,81.95
2024-01-16T20:47:15.745Z,82.17
2024-01-16T20:48:48.052Z,82.33
2024-01-16T20:50:20.430Z,82.33
2024-01-16T20:51:55.352Z,82.72
2024-01-16T20:53:28.667Z,82.85
2024-01-16T20:55:03.476Z,82.85
2024-01-16T20:56:41.604Z,82.87
2024-01-16T20:58:13.958Z,82.89
2024-01-16T20:59:46.881Z,82.90
2024-01-16T21:01:19.103Z,82.85
2024-01-16T21:02:51.385Z,83.19
2024-01-16T21:04:23.654Z,83.00
2024-01-16T21:05:56.665Z,83.09
2024-01-16T21:07:29.329Z,83.19
2024-01-16T21:09:02.015Z,83.25
2024-01-16T21:10:34.247Z,83.38
2024-01-16T21:12:07.065Z,83.50
2024-01-16T21:13:39.434Z,83.49
2024-01-16T21:15:11.608Z,83.31
2024-01-16T21:16:43.789Z,83.20
2024-01-16T21:18:17.773Z,82.90
2024-01-16T21:19:53.718Z,83.16
2024-01-16T21:21:26.480Z,83.25
2024-01-16T21:22:58.785Z,83.25
2024-01-16T21:24:31.149Z,83.38
2024-01-16T21:26:03.763Z,82.82
2024-01-16T21:27:38.678Z,82.54
2024-01-16T21:29:10.965Z,82.52
2024-01-16T21:30:44.027Z,82.72
2024-01-16T21:32:16.979Z,82.79
2024-01-16T21:33:49.390Z,83.09
2024-01-16T21:35:22.303Z,83.09
2024-01-16T21:36:54.765Z,83.13
2024-01-16T21:38:28.254Z,83.40
2024-01-16T21:40:00.501Z,83.56
2024-01-16T21:41:32.729Z,83.55
2024-01-16T21:43:05.145Z,83.38
2024-01-16T21:44:37.403Z,83.29
2024-01-16T21:46:10.262Z,83.26
2024-01-16T21:47:44.121Z,83.31
2024-01-16T21:49:16.780Z,83.45
2024-01-16T21:50:49.163Z,83.54
2024-01-16T21:52:22.278Z,83.37
2024-01-16T21:53:55.263Z,83.46
2024-01-16T21:55:27.741Z,83.28
2024-01-16T21:57:00.113Z,83.05
2024-01-16T21:58:32.617Z,83.06
2024-01-16T22:00:06.201Z,83.14
2024-01-16T22:01:38.269Z,83.08
2024-01-16T22:03:10.472Z,83.25
2024-01-16T22:04:42.862Z,83.35
2024-01-16T22:06:15.395Z,83.56
2024-01-16T22:07:49.374Z,83.34
2024-01-16T22:09:27.581Z,83.40
2024-01-16T22:10:59.939Z,83.46
2024-01-16T22:12:32.218Z,83.33
2024-01-16T22:14:04.612Z,83.34
2024-01-16T22:15:36.781Z,83.54
2024-01-16T22:17:09.244Z,83.64
2024-01-16T22:18:44.271Z,83.83
2024-01-16T22:20:18.322Z,83.41
2024-01-16T22:21:50.503Z,83.45
2024-01-16T22:23:22.877Z,83.30
2024-01-16T22:24:55.307Z,83.31
2024-01-16T22:26:27.588Z,83.49
2024-01-16T22:28:00.738Z,83.70
2024-01-16T22:29:33.009Z,83.44
2024-01-16T22:31:06.292Z,83.40
2024-01-16T22:32:38.722Z,83.09
2024-01-16T22:34:11.314Z,82.87
2024-01-16T22:35:43.657Z,82.86
2024-01-16T22:37:16.053Z,82.59
2024-01-16T22:38:48.644Z,82.84
2024-01-16T22:40:20.979Z,82.91
2024-01-16T22:41:53.243Z,82.82
2024-01-16T22:43:25.652Z,82.59
2024-01-16T22:44:57.886Z,82.60
2024-01-16T22:46:30.110Z,82.79
2024-01-16T22:48:06.770Z,83.11
2024-01-16T22:49:39.074Z,83.37
2024-01-16T22:51:11.283Z,83.65
2024-01-16T22:52:43.430Z,83.77
2024-01-16T22:54:15.925Z,83.72
2024-01-16T22:55:48.177Z,83.54
2024-01-16T22:57:20.402Z,83.78
2024-01-16T22:58:52.556Z,83.76
2024-01-16T23:00:24.811Z,83.58
2024-01-16T23:01:57.306Z,83.47
2024-01-16T23:03:31.010Z,83.48
2024-01-16T23:05:03.793Z,83.53
2024-01-16T23:06:37.245Z,83.54
2024-01-16T23:08:11.992Z,83.77
2024-01-16T23:09:48.781Z,83.81
2024-01-16T23:11:21.068Z,83.86
2024-01-16T23:12:53.245Z,83.77
2024-01-16T23:14:25.477Z,83.78
2024-01-16T23:15:57.614Z,83.84
2024-01-16T23:17:31.268Z,83.81
2024-01-16T23:19:03.703Z,83.83
2024-01-16T23:20:36.068Z,83.93
2024-01-16T23:22:08.830Z,83.80
2024-01-16T23:23:45.380Z,83.47
2024-01-16T23:25:17.638Z,83.23
2024-01-16T23:26:50.055Z,83.50
2024-01-16T23:28:22.276Z,83.47
2024-01-16T23:29:54.519Z,83.21
2024-01-16T23:31:26.688Z,83.37
2024-01-16T23:32:58.957Z,83.15
2024-01-16T23:34:31.245Z,82.84
2024-01-16T23:36:03.523Z,82.73
2024-01-16T23:37:37.595Z,82.93
2024-01-16T23:39:12.818Z,83.01
2024-01-16T23:40:45.065Z,83.20
2024-01-16T23:42:20.752Z,83.15
2024-01-16T23:43:53.081Z,83.00
2024-01-16T23:47:05.304Z,83.00
2024-01-16T23:48:38.415Z,82.80
2024-01-16T23:50:11.462Z,82.96
2024-01-16T23:52:02.528Z,82.63
2024-01-16T23:53:37.447Z,82.52
2024-01-16T23:55:13.124Z,82.38
2024-01-16T23:56:45.354Z,82.29
2024-01-16T23:58:17.534Z,82.45
2024-01-16T23:59:49.753Z,82.62
